sensor_id;sensor_type;location;lat;lon;timestamp;P1;durP1;ratioP1;P2;durP2;ratioP2
31464;SDS011;18089;47.428;15.006;2023-04-06T00:00:26;19.87;;;18.30;;
31464;SDS011;18089;47.428;15.006;2023-04-06T00:02:59;18.83;;;17.23;;
31464;SDS011;18089;47.428;15.006;2023-04-06T00:05:31;20.17;;;18.60;;
31464;SDS011;18089;47.428;15.006;2023-04-06T00:08:03;19.67;;;18.10;;
31464;SDS011;18089;47.428;15.006;2023-04-06T00:10:36;20.10;;;18.30;;
31464;SDS011;18089;47.428;15.006;2023-04-06T00:13:09;19.80;;;18.23;;
31464;SDS011;18089;47.428;15.006;2023-04-06T00:15:41;19.73;;;18.13;;
31464;SDS011;18089;47.428;15.006;2023-04-06T00:18:13;19.70;;;18.10;;
31464;SDS011;18089;47.428;15.006;2023-04-06T00:20:45;18.80;;;17.30;;
31464;SDS011;18089;47.428;15.006;2023-04-06T00:23:17;19.27;;;17.57;;
31464;SDS011;18089;47.428;15.006;2023-04-06T00:25:49;19.07;;;17.43;;
31464;SDS011;18089;47.428;15.006;2023-04-06T00:28:23;19.47;;;17.67;;
31464;SDS011;18089;47.428;15.006;2023-04-06T00:30:56;19.63;;;18.07;;
31464;SDS011;18089;47.428;15.006;2023-04-06T00:33:28;19.37;;;17.87;;
31464;SDS011;18089;47.428;15.006;2023-04-06T00:36:00;18.57;;;17.13;;
31464;SDS011;18089;47.428;15.006;2023-04-06T00:38:32;20.63;;;18.97;;
31464;SDS011;18089;47.428;15.006;2023-04-06T00:41:04;18.70;;;17.23;;
31464;SDS011;18089;47.428;15.006;2023-04-06T00:43:38;19.47;;;17.70;;
31464;SDS011;18089;47.428;15.006;2023-04-06T00:46:10;20.90;;;19.00;;
31464;SDS011;18089;47.428;15.006;2023-04-06T00:48:42;21.17;;;19.50;;
31464;SDS011;18089;47.428;15.006;2023-04-06T00:51:14;20.37;;;18.70;;
31464;SDS011;18089;47.428;15.006;2023-04-06T00:53:46;18.83;;;17.63;;
31464;SDS011;18089;47.428;15.006;2023-04-06T00:56:18;18.47;;;17.07;;
31464;SDS011;18089;47.428;15.006;2023-04-06T00:58:52;19.50;;;17.97;;
31464;SDS011;18089;47.428;15.006;2023-04-06T01:01:25;18.43;;;16.87;;
31464;SDS011;18089;47.428;15.006;2023-04-06T01:03:57;18.70;;;17.30;;
31464;SDS011;18089;47.428;15.006;2023-04-06T01:06:29;18.73;;;17.33;;
31464;SDS011;18089;47.428;15.006;2023-04-06T01:09:01;19.17;;;17.53;;
31464;SDS011;18089;47.428;15.006;2023-04-06T01:11:33;19.27;;;17.57;;
31464;SDS011;18089;47.428;15.006;2023-04-06T01:14:08;19.50;;;17.80;;
31464;SDS011;18089;47.428;15.006;2023-04-06T01:16:40;20.67;;;19.17;;
31464;SDS011;18089;47.428;15.006;2023-04-06T01:19:13;19.03;;;17.73;;
31464;SDS011;18089;47.428;15.006;2023-04-06T01:21:45;17.87;;;16.60;;
31464;SDS011;18089;47.428;15.006;2023-04-06T01:24:20;19.70;;;18.20;;
31464;SDS011;18089;47.428;15.006;2023-04-06T01:26:53;20.90;;;19.30;;
31464;SDS011;18089;47.428;15.006;2023-04-06T01:29:26;20.50;;;18.73;;
31464;SDS011;18089;47.428;15.006;2023-04-06T01:31:58;20.17;;;18.63;;
31464;SDS011;18089;47.428;15.006;2023-04-06T01:34:30;19.27;;;17.60;;
31464;SDS011;18089;47.428;15.006;2023-04-06T01:37:02;20.10;;;18.43;;
31464;SDS011;18089;47.428;15.006;2023-04-06T01:39:36;20.73;;;18.83;;
31464;SDS011;18089;47.428;15.006;2023-04-06T01:42:08;19.63;;;18.07;;
31464;SDS011;18089;47.428;15.006;2023-04-06T01:44:40;19.53;;;17.93;;
31464;SDS011;18089;47.428;15.006;2023-04-06T01:47:12;20.73;;;19.13;;
31464;SDS011;18089;47.428;15.006;2023-04-06T01:49:44;20.77;;;19.17;;
31464;SDS011;18089;47.428;15.006;2023-04-06T01:52:17;19.63;;;17.93;;
31464;SDS011;18089;47.428;15.006;2023-04-06T01:54:51;21.27;;;19.57;;
31464;SDS011;18089;47.428;15.006;2023-04-06T01:57:23;19.87;;;18.07;;
31464;SDS011;18089;47.428;15.006;2023-04-06T01:59:55;19.93;;;18.43;;
31464;SDS011;18089;47.428;15.006;2023-04-06T02:02:27;21.67;;;20.07;;
31464;SDS011;18089;47.428;15.006;2023-04-06T02:04:59;21.03;;;19.33;;
31464;SDS011;18089;47.428;15.006;2023-04-06T02:07:31;20.87;;;19.03;;
31464;SDS011;18089;47.428;15.006;2023-04-06T02:10:10;20.40;;;18.73;;
31464;SDS011;18089;47.428;15.006;2023-04-06T02:12:42;22.00;;;20.13;;
31464;SDS011;18089;47.428;15.006;2023-04-06T02:15:15;20.93;;;19.43;;
31464;SDS011;18089;47.428;15.006;2023-04-06T02:17:47;19.30;;;17.93;;
31464;SDS011;18089;47.428;15.006;2023-04-06T02:20:19;22.63;;;20.93;;
31464;SDS011;18089;47.428;15.006;2023-04-06T02:22:51;21.90;;;19.83;;
31464;SDS011;18089;47.428;15.006;2023-04-06T02:25:24;22.23;;;20.00;;
31464;SDS011;18089;47.428;15.006;2023-04-06T02:27:56;20.70;;;19.00;;
31464;SDS011;18089;47.428;15.006;2023-04-06T02:30:28;20.17;;;18.67;;
31464;SDS011;18089;47.428;15.006;2023-04-06T02:33:02;21.67;;;19.87;;
31464;SDS011;18089;47.428;15.006;2023-04-06T02:35:34;21.10;;;19.57;;
31464;SDS011;18089;47.428;15.006;2023-04-06T02:38:07;22.13;;;20.50;;
31464;SDS011;18089;47.428;15.006;2023-04-06T02:40:40;20.60;;;18.73;;
31464;SDS011;18089;47.428;15.006;2023-04-06T02:43:12;21.27;;;19.50;;
31464;SDS011;18089;47.428;15.006;2023-04-06T02:45:45;20.63;;;19.13;;
31464;SDS011;18089;47.428;15.006;2023-04-06T02:48:17;20.00;;;18.50;;
31464;SDS011;18089;47.428;15.006;2023-04-06T02:50:49;21.60;;;19.70;;
31464;SDS011;18089;47.428;15.006;2023-04-06T02:53:21;21.07;;;19.47;;
31464;SDS011;18089;47.428;15.006;2023-04-06T02:55:55;20.80;;;19.43;;
31464;SDS011;18089;47.428;15.006;2023-04-06T02:58:27;21.63;;;19.90;;
31464;SDS011;18089;47.428;15.006;2023-04-06T03:00:59;20.30;;;18.87;;
31464;SDS011;18089;47.428;15.006;2023-04-06T03:03:31;21.33;;;19.50;;
31464;SDS011;18089;47.428;15.006;2023-04-06T03:06:04;22.03;;;20.53;;
31464;SDS011;18089;47.428;15.006;2023-04-06T03:08:36;20.57;;;19.00;;
31464;SDS011;18089;47.428;15.006;2023-04-06T03:11:09;20.03;;;18.63;;
31464;SDS011;18089;47.428;15.006;2023-04-06T03:13:41;21.53;;;19.97;;
31464;SDS011;18089;47.428;15.006;2023-04-06T03:16:13;21.13;;;19.33;;
31464;SDS011;18089;47.428;15.006;2023-04-06T03:18:46;21.90;;;20.00;;
31464;SDS011;18089;47.428;15.006;2023-04-06T03:21:18;21.73;;;20.00;;
31464;SDS011;18089;47.428;15.006;2023-04-06T03:23:50;21.33;;;19.23;;
31464;SDS011;18089;47.428;15.006;2023-04-06T03:26:23;21.77;;;19.87;;
31464;SDS011;18089;47.428;15.006;2023-04-06T03:28:56;21.50;;;19.47;;
31464;SDS011;18089;47.428;15.006;2023-04-06T03:31:28;21.43;;;19.63;;
31464;SDS011;18089;47.428;15.006;2023-04-06T03:34:00;20.80;;;18.90;;
31464;SDS011;18089;47.428;15.006;2023-04-06T03:36:33;21.13;;;19.23;;
31464;SDS011;18089;47.428;15.006;2023-04-06T03:39:05;22.30;;;20.30;;
31464;SDS011;18089;47.428;15.006;2023-04-06T03:41:39;23.53;;;20.87;;
31464;SDS011;18089;47.428;15.006;2023-04-06T03:44:11;20.90;;;19.10;;
31464;SDS011;18089;47.428;15.006;2023-04-06T03:46:43;24.07;;;21.90;;
31464;SDS011;18089;47.428;15.006;2023-04-06T03:49:15;22.33;;;20.50;;
31464;SDS011;18089;47.428;15.006;2023-04-06T03:51:47;20.73;;;18.93;;
31464;SDS011;18089;47.428;15.006;2023-04-06T03:54:19;24.33;;;22.23;;
31464;SDS011;18089;47.428;15.006;2023-04-06T03:56:53;20.67;;;18.90;;
31464;SDS011;18089;47.428;15.006;2023-04-06T03:59:25;22.97;;;20.70;;
31464;SDS011;18089;47.428;15.006;2023-04-06T04:01:57;22.17;;;20.47;;
31464;SDS011;18089;47.428;15.006;2023-04-06T04:04:29;22.40;;;20.10;;
31464;SDS011;18089;47.428;15.006;2023-04-06T04:07:01;21.93;;;20.03;;
31464;SDS011;18089;47.428;15.006;2023-04-06T04:09:33;23.13;;;21.13;;
31464;SDS011;18089;47.428;15.006;2023-04-06T04:12:07;22.13;;;20.50;;
31464;SDS011;18089;47.428;15.006;2023-04-06T04:14:39;22.70;;;20.87;;
31464;SDS011;18089;47.428;15.006;2023-04-06T04:17:11;22.27;;;20.23;;
31464;SDS011;18089;47.428;15.006;2023-04-06T04:19:43;21.47;;;19.33;;
31464;SDS011;18089;47.428;15.006;2023-04-06T04:22:15;23.83;;;22.03;;
31464;SDS011;18089;47.428;15.006;2023-04-06T04:24:47;23.27;;;21.20;;
31464;SDS011;18089;47.428;15.006;2023-04-06T04:27:21;21.73;;;19.63;;
31464;SDS011;18089;47.428;15.006;2023-04-06T04:29:53;22.33;;;20.70;;
31464;SDS011;18089;47.428;15.006;2023-04-06T04:32:25;21.20;;;19.57;;
31464;SDS011;18089;47.428;15.006;2023-04-06T04:34:57;23.17;;;20.93;;
31464;SDS011;18089;47.428;15.006;2023-04-06T04:37:29;20.90;;;19.03;;
31464;SDS011;18089;47.428;15.006;2023-04-06T04:40:01;22.40;;;20.40;;
31464;SDS011;18089;47.428;15.006;2023-04-06T04:42:35;23.60;;;21.37;;
31464;SDS011;18089;47.428;15.006;2023-04-06T04:45:07;29.80;;;24.40;;
31464;SDS011;18089;47.428;15.006;2023-04-06T04:47:40;27.13;;;24.27;;
31464;SDS011;18089;47.428;15.006;2023-04-06T04:50:12;25.60;;;23.30;;
31464;SDS011;18089;47.428;15.006;2023-04-06T04:52:44;23.63;;;21.67;;
31464;SDS011;18089;47.428;15.006;2023-04-06T04:55:16;24.30;;;21.93;;
31464;SDS011;18089;47.428;15.006;2023-04-06T04:57:50;25.77;;;23.10;;
31464;SDS011;18089;47.428;15.006;2023-04-06T05:00:22;26.67;;;23.87;;
31464;SDS011;18089;47.428;15.006;2023-04-06T05:02:54;23.80;;;21.63;;
31464;SDS011;18089;47.428;15.006;2023-04-06T05:05:26;24.73;;;22.27;;
31464;SDS011;18089;47.428;15.006;2023-04-06T05:07:58;30.97;;;24.70;;
31464;SDS011;18089;47.428;15.006;2023-04-06T05:10:30;25.07;;;22.47;;
31464;SDS011;18089;47.428;15.006;2023-04-06T05:13:03;28.73;;;22.87;;
31464;SDS011;18089;47.428;15.006;2023-04-06T05:15:36;25.83;;;23.03;;
31464;SDS011;18089;47.428;15.006;2023-04-06T05:18:10;34.10;;;25.70;;
31464;SDS011;18089;47.428;15.006;2023-04-06T05:20:42;32.33;;;27.23;;
31464;SDS011;18089;47.428;15.006;2023-04-06T05:23:14;36.10;;;28.27;;
31464;SDS011;18089;47.428;15.006;2023-04-06T05:25:46;29.70;;;25.83;;
31464;SDS011;18089;47.428;15.006;2023-04-06T05:28:20;35.63;;;26.20;;
31464;SDS011;18089;47.428;15.006;2023-04-06T05:30:52;33.50;;;28.23;;
31464;SDS011;18089;47.428;15.006;2023-04-06T05:33:25;35.00;;;29.77;;
31464;SDS011;18089;47.428;15.006;2023-04-06T05:35:57;30.00;;;26.70;;
31464;SDS011;18089;47.428;15.006;2023-04-06T05:38:30;31.83;;;26.57;;
31464;SDS011;18089;47.428;15.006;2023-04-06T05:41:03;27.43;;;24.50;;
31464;SDS011;18089;47.428;15.006;2023-04-06T05:43:37;31.93;;;27.70;;
31464;SDS011;18089;47.428;15.006;2023-04-06T05:46:09;43.93;;;34.03;;
31464;SDS011;18089;47.428;15.006;2023-04-06T05:48:41;39.67;;;32.43;;
31464;SDS011;18089;47.428;15.006;2023-04-06T05:51:13;32.93;;;29.23;;
31464;SDS011;18089;47.428;15.006;2023-04-06T05:53:45;28.60;;;25.60;;
31464;SDS011;18089;47.428;15.006;2023-04-06T05:56:17;26.20;;;22.50;;
31464;SDS011;18089;47.428;15.006;2023-04-06T05:58:51;31.83;;;24.40;;
31464;SDS011;18089;47.428;15.006;2023-04-06T06:01:23;28.83;;;24.00;;
31464;SDS011;18089;47.428;15.006;2023-04-06T06:03:55;26.63;;;23.30;;
31464;SDS011;18089;47.428;15.006;2023-04-06T06:06:27;30.40;;;22.87;;
31464;SDS011;18089;47.428;15.006;2023-04-06T06:09:00;24.43;;;22.00;;
31464;SDS011;18089;47.428;15.006;2023-04-06T06:11:33;21.70;;;19.50;;
31464;SDS011;18089;47.428;15.006;2023-04-06T06:14:07;23.10;;;20.70;;
31464;SDS011;18089;47.428;15.006;2023-04-06T06:16:39;24.73;;;22.33;;
31464;SDS011;18089;47.428;15.006;2023-04-06T06:19:11;25.43;;;21.10;;
31464;SDS011;18089;47.428;15.006;2023-04-06T06:21:43;19.83;;;18.07;;
31464;SDS011;18089;47.428;15.006;2023-04-06T06:24:15;18.57;;;16.90;;
31464;SDS011;18089;47.428;15.006;2023-04-06T06:26:47;22.07;;;19.53;;
31464;SDS011;18089;47.428;15.006;2023-04-06T06:29:21;21.23;;;18.97;;
31464;SDS011;18089;47.428;15.006;2023-04-06T06:31:53;19.40;;;17.70;;
31464;SDS011;18089;47.428;15.006;2023-04-06T06:34:26;19.80;;;18.10;;
31464;SDS011;18089;47.428;15.006;2023-04-06T06:36:58;19.73;;;17.90;;
31464;SDS011;18089;47.428;15.006;2023-04-06T06:39:30;19.83;;;18.13;;
31464;SDS011;18089;47.428;15.006;2023-04-06T06:42:02;20.47;;;18.33;;
31464;SDS011;18089;47.428;15.006;2023-04-06T06:44:36;18.90;;;17.40;;
31464;SDS011;18089;47.428;15.006;2023-04-06T06:47:08;21.00;;;17.30;;
31464;SDS011;18089;47.428;15.006;2023-04-06T06:49:40;20.80;;;18.17;;
31464;SDS011;18089;47.428;15.006;2023-04-06T06:52:12;19.40;;;17.40;;
31464;SDS011;18089;47.428;15.006;2023-04-06T06:54:44;20.67;;;18.67;;
31464;SDS011;18089;47.428;15.006;2023-04-06T06:57:16;20.17;;;18.27;;
31464;SDS011;18089;47.428;15.006;2023-04-06T06:59:50;19.23;;;17.57;;
31464;SDS011;18089;47.428;15.006;2023-04-06T07:02:22;19.13;;;17.17;;
31464;SDS011;18089;47.428;15.006;2023-04-06T07:04:54;19.10;;;17.10;;
31464;SDS011;18089;47.428;15.006;2023-04-06T07:07:27;18.30;;;16.67;;
31464;SDS011;18089;47.428;15.006;2023-04-06T07:09:59;19.27;;;17.20;;
31464;SDS011;18089;47.428;15.006;2023-04-06T07:12:31;18.50;;;16.70;;
31464;SDS011;18089;47.428;15.006;2023-04-06T07:15:05;23.83;;;20.10;;
31464;SDS011;18089;47.428;15.006;2023-04-06T07:17:38;18.43;;;16.60;;
31464;SDS011;18089;47.428;15.006;2023-04-06T07:20:11;20.63;;;16.97;;
31464;SDS011;18089;47.428;15.006;2023-04-06T07:22:43;17.67;;;16.10;;
31464;SDS011;18089;47.428;15.006;2023-04-06T07:25:16;16.50;;;15.00;;
31464;SDS011;18089;47.428;15.006;2023-04-06T07:27:48;16.77;;;15.37;;
31464;SDS011;18089;47.428;15.006;2023-04-06T07:30:21;16.50;;;15.00;;
31464;SDS011;18089;47.428;15.006;2023-04-06T07:32:55;15.63;;;14.33;;
31464;SDS011;18089;47.428;15.006;2023-04-06T07:35:27;15.87;;;14.47;;
31464;SDS011;18089;47.428;15.006;2023-04-06T07:38:00;14.67;;;13.60;;
31464;SDS011;18089;47.428;15.006;2023-04-06T07:40:32;15.10;;;13.83;;
31464;SDS011;18089;47.428;15.006;2023-04-06T07:43:04;17.70;;;15.93;;
31464;SDS011;18089;47.428;15.006;2023-04-06T07:45:38;16.17;;;14.60;;
31464;SDS011;18089;47.428;15.006;2023-04-06T07:48:10;14.20;;;13.20;;
31464;SDS011;18089;47.428;15.006;2023-04-06T07:50:42;13.97;;;12.77;;
31464;SDS011;18089;47.428;15.006;2023-04-06T07:53:14;14.60;;;13.47;;
31464;SDS011;18089;47.428;15.006;2023-04-06T07:55:46;14.93;;;13.50;;
31464;SDS011;18089;47.428;15.006;2023-04-06T07:58:18;13.50;;;12.35;;
31464;SDS011;18089;47.428;15.006;2023-04-06T08:00:52;12.93;;;11.93;;
31464;SDS011;18089;47.428;15.006;2023-04-06T08:03:24;13.83;;;12.63;;
31464;SDS011;18089;47.428;15.006;2023-04-06T08:05:56;13.07;;;12.13;;
31464;SDS011;18089;47.428;15.006;2023-04-06T08:08:28;13.20;;;12.18;;
31464;SDS011;18089;47.428;15.006;2023-04-06T08:11:01;13.93;;;12.83;;
31464;SDS011;18089;47.428;15.006;2023-04-06T08:13:33;14.43;;;13.03;;
31464;SDS011;18089;47.428;15.006;2023-04-06T08:16:07;13.23;;;12.30;;
31464;SDS011;18089;47.428;15.006;2023-04-06T08:18:39;14.13;;;13.00;;
31464;SDS011;18089;47.428;15.006;2023-04-06T08:21:11;13.23;;;12.02;;
31464;SDS011;18089;47.428;15.006;2023-04-06T08:23:43;12.90;;;11.63;;
31464;SDS011;18089;47.428;15.006;2023-04-06T08:26:16;13.17;;;12.17;;
31464;SDS011;18089;47.428;15.006;2023-04-06T08:28:49;12.63;;;11.73;;
31464;SDS011;18089;47.428;15.006;2023-04-06T08:31:22;12.23;;;11.43;;
31464;SDS011;18089;47.428;15.006;2023-04-06T08:33:55;13.75;;;12.65;;
31464;SDS011;18089;47.428;15.006;2023-04-06T08:36:28;13.18;;;12.18;;
31464;SDS011;18089;47.428;15.006;2023-04-06T08:39:00;12.45;;;11.38;;
31464;SDS011;18089;47.428;15.006;2023-04-06T08:41:32;12.85;;;11.90;;
31464;SDS011;18089;47.428;15.006;2023-04-06T08:44:05;12.23;;;11.32;;
31464;SDS011;18089;47.428;15.006;2023-04-06T08:46:39;11.90;;;11.00;;
31464;SDS011;18089;47.428;15.006;2023-04-06T08:49:11;12.13;;;11.13;;
31464;SDS011;18089;47.428;15.006;2023-04-06T08:51:44;12.07;;;11.18;;
31464;SDS011;18089;47.428;15.006;2023-04-06T08:54:16;11.95;;;11.00;;
31464;SDS011;18089;47.428;15.006;2023-04-06T08:56:48;11.63;;;10.82;;
31464;SDS011;18089;47.428;15.006;2023-04-06T08:59:20;12.10;;;11.20;;
31464;SDS011;18089;47.428;15.006;2023-04-06T09:01:54;11.52;;;10.27;;
31464;SDS011;18089;47.428;15.006;2023-04-06T09:04:26;11.73;;;10.82;;
31464;SDS011;18089;47.428;15.006;2023-04-06T09:06:58;11.90;;;10.95;;
31464;SDS011;18089;47.428;15.006;2023-04-06T09:09:30;12.05;;;11.15;;
31464;SDS011;18089;47.428;15.006;2023-04-06T09:12:02;11.27;;;10.35;;
31464;SDS011;18089;47.428;15.006;2023-04-06T09:14:36;11.32;;;10.50;;
31464;SDS011;18089;47.428;15.006;2023-04-06T09:17:19;10.25;;;9.45;;
31464;SDS011;18089;47.428;15.006;2023-04-06T09:19:51;10.90;;;9.82;;
31464;SDS011;18089;47.428;15.006;2023-04-06T09:22:23;10.80;;;9.90;;
31464;SDS011;18089;47.428;15.006;2023-04-06T09:24:57;10.80;;;9.82;;
31464;SDS011;18089;47.428;15.006;2023-04-06T09:27:29;10.75;;;9.95;;
31464;SDS011;18089;47.428;15.006;2023-04-06T09:30:02;11.02;;;10.32;;
31464;SDS011;18089;47.428;15.006;2023-04-06T09:32:47;10.15;;;9.35;;
31464;SDS011;18089;47.428;15.006;2023-04-06T09:35:20;9.88;;;9.07;;
31464;SDS011;18089;47.428;15.006;2023-04-06T09:37:53;10.73;;;9.93;;
31464;SDS011;18089;47.428;15.006;2023-04-06T09:40:26;10.25;;;9.52;;
31464;SDS011;18089;47.428;15.006;2023-04-06T09:42:59;10.32;;;9.48;;
31464;SDS011;18089;47.428;15.006;2023-04-06T09:45:33;9.85;;;9.15;;
31464;SDS011;18089;47.428;15.006;2023-04-06T09:48:07;10.23;;;9.40;;
31464;SDS011;18089;47.428;15.006;2023-04-06T09:50:39;9.48;;;8.77;;
31464;SDS011;18089;47.428;15.006;2023-04-06T09:53:11;9.13;;;8.43;;
31464;SDS011;18089;47.428;15.006;2023-04-06T09:55:43;9.85;;;9.05;;
31464;SDS011;18089;47.428;15.006;2023-04-06T09:58:17;9.05;;;8.35;;
31464;SDS011;18089;47.428;15.006;2023-04-06T10:00:51;9.80;;;9.02;;
31464;SDS011;18089;47.428;15.006;2023-04-06T10:03:29;8.60;;;7.90;;
31464;SDS011;18089;47.428;15.006;2023-04-06T10:06:08;8.00;;;7.40;;
31464;SDS011;18089;47.428;15.006;2023-04-06T10:08:42;8.52;;;7.93;;
31464;SDS011;18089;47.428;15.006;2023-04-06T10:11:17;7.93;;;7.28;;
31464;SDS011;18089;47.428;15.006;2023-04-06T10:13:49;7.75;;;7.20;;
31464;SDS011;18089;47.428;15.006;2023-04-06T10:16:21;7.65;;;6.95;;
31464;SDS011;18089;47.428;15.006;2023-04-06T10:19:00;7.90;;;7.10;;
31464;SDS011;18089;47.428;15.006;2023-04-06T10:21:37;7.25;;;6.60;;
31464;SDS011;18089;47.428;15.006;2023-04-06T10:24:10;6.93;;;6.32;;
31464;SDS011;18089;47.428;15.006;2023-04-06T10:26:43;6.63;;;6.07;;
31464;SDS011;18089;47.428;15.006;2023-04-06T10:29:40;6.57;;;6.07;;
31464;SDS011;18089;47.428;15.006;2023-04-06T10:32:15;10.73;;;6.13;;
31464;SDS011;18089;47.428;15.006;2023-04-06T10:34:48;6.38;;;5.88;;
31464;SDS011;18089;47.428;15.006;2023-04-06T10:37:20;7.10;;;6.40;;
31464;SDS011;18089;47.428;15.006;2023-04-06T10:39:53;6.30;;;5.88;;
31464;SDS011;18089;47.428;15.006;2023-04-06T10:42:36;6.38;;;5.88;;
31464;SDS011;18089;47.428;15.006;2023-04-06T10:45:18;6.38;;;5.88;;
31464;SDS011;18089;47.428;15.006;2023-04-06T10:47:52;5.72;;;5.22;;
31464;SDS011;18089;47.428;15.006;2023-04-06T10:50:26;6.00;;;5.50;;
31464;SDS011;18089;47.428;15.006;2023-04-06T10:53:00;5.53;;;5.03;;
31464;SDS011;18089;47.428;15.006;2023-04-06T10:55:33;5.57;;;5.07;;
31464;SDS011;18089;47.428;15.006;2023-04-06T10:58:06;5.70;;;5.25;;
31464;SDS011;18089;47.428;15.006;2023-04-06T11:00:44;7.93;;;5.28;;
31464;SDS011;18089;47.428;15.006;2023-04-06T11:03:16;5.82;;;4.72;;
31464;SDS011;18089;47.428;15.006;2023-04-06T11:05:51;6.00;;;5.50;;
31464;SDS011;18089;47.428;15.006;2023-04-06T11:08:24;5.88;;;5.38;;
31464;SDS011;18089;47.428;15.006;2023-04-06T11:11:06;5.40;;;4.97;;
31464;SDS011;18089;47.428;15.006;2023-04-06T11:13:39;5.70;;;5.20;;
31464;SDS011;18089;47.428;15.006;2023-04-06T11:16:13;5.60;;;5.10;;
31464;SDS011;18089;47.428;15.006;2023-04-06T11:18:49;6.40;;;5.32;;
31464;SDS011;18089;47.428;15.006;2023-04-06T11:21:34;5.47;;;4.90;;
31464;SDS011;18089;47.428;15.006;2023-04-06T11:24:09;4.63;;;4.20;;
31464;SDS011;18089;47.428;15.006;2023-04-06T11:26:43;5.38;;;4.03;;
31464;SDS011;18089;47.428;15.006;2023-04-06T11:29:16;4.25;;;3.95;;
31464;SDS011;18089;47.428;15.006;2023-04-06T11:31:50;6.22;;;4.50;;
31464;SDS011;18089;47.428;15.006;2023-04-06T11:34:23;4.43;;;4.13;;
31464;SDS011;18089;47.428;15.006;2023-04-06T11:36:57;4.90;;;4.15;;
31464;SDS011;18089;47.428;15.006;2023-04-06T11:39:30;4.47;;;4.07;;
31464;SDS011;18089;47.428;15.006;2023-04-06T11:42:02;4.50;;;4.10;;
31464;SDS011;18089;47.428;15.006;2023-04-06T11:44:35;4.57;;;3.78;;
31464;SDS011;18089;47.428;15.006;2023-04-06T11:47:09;4.03;;;3.42;;
31464;SDS011;18089;47.428;15.006;2023-04-06T11:49:42;4.07;;;3.67;;
31464;SDS011;18089;47.428;15.006;2023-04-06T11:52:18;3.80;;;3.50;;
31464;SDS011;18089;47.428;15.006;2023-04-06T11:54:51;3.80;;;3.50;;
31464;SDS011;18089;47.428;15.006;2023-04-06T11:57:26;4.07;;;3.42;;
31464;SDS011;18089;47.428;15.006;2023-04-06T12:00:00;3.95;;;3.40;;
31464;SDS011;18089;47.428;15.006;2023-04-06T12:02:32;4.18;;;3.78;;
31464;SDS011;18089;47.428;15.006;2023-04-06T12:05:04;4.75;;;3.65;;
31464;SDS011;18089;47.428;15.006;2023-04-06T12:07:39;4.03;;;3.70;;
31464;SDS011;18089;47.428;15.006;2023-04-06T12:10:11;5.18;;;3.40;;
31464;SDS011;18089;47.428;15.006;2023-04-06T12:12:44;3.50;;;3.20;;
31464;SDS011;18089;47.428;15.006;2023-04-06T12:15:16;3.70;;;3.40;;
31464;SDS011;18089;47.428;15.006;2023-04-06T12:17:48;3.72;;;3.25;;
31464;SDS011;18089;47.428;15.006;2023-04-06T12:20:20;3.33;;;2.90;;
31464;SDS011;18089;47.428;15.006;2023-04-06T12:22:54;4.78;;;2.90;;
31464;SDS011;18089;47.428;15.006;2023-04-06T12:25:26;4.22;;;2.80;;
31464;SDS011;18089;47.428;15.006;2023-04-06T12:27:58;3.38;;;3.10;;
31464;SDS011;18089;47.428;15.006;2023-04-06T12:30:30;3.83;;;3.15;;
31464;SDS011;18089;47.428;15.006;2023-04-06T12:33:02;3.83;;;3.40;;
31464;SDS011;18089;47.428;15.006;2023-04-06T12:35:34;3.78;;;3.30;;
31464;SDS011;18089;47.428;15.006;2023-04-06T12:38:08;4.22;;;3.83;;
31464;SDS011;18089;47.428;15.006;2023-04-06T12:40:41;3.85;;;3.55;;
31464;SDS011;18089;47.428;15.006;2023-04-06T12:43:13;3.30;;;3.00;;
31464;SDS011;18089;47.428;15.006;2023-04-06T12:45:45;3.45;;;3.20;;
31464;SDS011;18089;47.428;15.006;2023-04-06T12:48:17;3.40;;;3.10;;
31464;SDS011;18089;47.428;15.006;2023-04-06T12:50:53;3.28;;;2.97;;
31464;SDS011;18089;47.428;15.006;2023-04-06T12:53:27;3.33;;;2.92;;
31464;SDS011;18089;47.428;15.006;2023-04-06T12:56:00;3.85;;;3.10;;
31464;SDS011;18089;47.428;15.006;2023-04-06T12:58:32;4.57;;;2.80;;
31464;SDS011;18089;47.428;15.006;2023-04-06T13:01:06;3.13;;;2.78;;
31464;SDS011;18089;47.428;15.006;2023-04-06T13:03:38;4.28;;;3.20;;
31464;SDS011;18089;47.428;15.006;2023-04-06T13:06:11;4.30;;;3.20;;
31464;SDS011;18089;47.428;15.006;2023-04-06T13:08:44;3.47;;;2.60;;
31464;SDS011;18089;47.428;15.006;2023-04-06T13:11:17;2.85;;;2.65;;
31464;SDS011;18089;47.428;15.006;2023-04-06T13:13:50;3.72;;;2.70;;
31464;SDS011;18089;47.428;15.006;2023-04-06T13:16:22;5.22;;;2.55;;
31464;SDS011;18089;47.428;15.006;2023-04-06T13:18:54;2.92;;;2.58;;
31464;SDS011;18089;47.428;15.006;2023-04-06T13:21:27;2.90;;;2.50;;
31464;SDS011;18089;47.428;15.006;2023-04-06T13:24:00;7.30;;;2.50;;
31464;SDS011;18089;47.428;15.006;2023-04-06T13:26:32;5.15;;;2.42;;
31464;SDS011;18089;47.428;15.006;2023-04-06T13:29:04;3.40;;;3.10;;
31464;SDS011;18089;47.428;15.006;2023-04-06T13:31:36;3.60;;;2.95;;
31464;SDS011;18089;47.428;15.006;2023-04-06T13:34:09;4.13;;;3.38;;
31464;SDS011;18089;47.428;15.006;2023-04-06T13:36:41;4.10;;;3.60;;
31464;SDS011;18089;47.428;15.006;2023-04-06T13:39:14;4.40;;;3.58;;
31464;SDS011;18089;47.428;15.006;2023-04-06T13:41:46;3.47;;;3.10;;
31464;SDS011;18089;47.428;15.006;2023-04-06T13:44:18;5.30;;;3.40;;
31464;SDS011;18089;47.428;15.006;2023-04-06T13:46:51;4.05;;;3.13;;
31464;SDS011;18089;47.428;15.006;2023-04-06T13:49:23;3.58;;;3.28;;
31464;SDS011;18089;47.428;15.006;2023-04-06T13:51:56;5.50;;;3.30;;
31464;SDS011;18089;47.428;15.006;2023-04-06T13:54:30;4.80;;;3.10;;
31464;SDS011;18089;47.428;15.006;2023-04-06T13:57:02;4.35;;;3.58;;
31464;SDS011;18089;47.428;15.006;2023-04-06T13:59:34;4.85;;;3.30;;
31464;SDS011;18089;47.428;15.006;2023-04-06T14:02:08;4.10;;;3.30;;
31464;SDS011;18089;47.428;15.006;2023-04-06T14:04:41;4.18;;;3.40;;
31464;SDS011;18089;47.428;15.006;2023-04-06T14:07:13;3.50;;;3.20;;
31464;SDS011;18089;47.428;15.006;2023-04-06T14:09:46;4.00;;;3.10;;
31464;SDS011;18089;47.428;15.006;2023-04-06T14:12:18;3.58;;;3.22;;
31464;SDS011;18089;47.428;15.006;2023-04-06T14:14:50;3.22;;;2.92;;
31464;SDS011;18089;47.428;15.006;2023-04-06T14:17:22;3.33;;;3.03;;
31464;SDS011;18089;47.428;15.006;2023-04-06T14:19:54;5.70;;;2.97;;
31464;SDS011;18089;47.428;15.006;2023-04-06T14:22:26;2.88;;;2.55;;
31464;SDS011;18089;47.428;15.006;2023-04-06T14:25:00;2.50;;;2.30;;
31464;SDS011;18089;47.428;15.006;2023-04-06T14:27:32;3.28;;;2.97;;
31464;SDS011;18089;47.428;15.006;2023-04-06T14:30:05;3.25;;;2.95;;
31464;SDS011;18089;47.428;15.006;2023-04-06T14:32:38;3.20;;;2.85;;
31464;SDS011;18089;47.428;15.006;2023-04-06T14:35:10;3.38;;;2.67;;
31464;SDS011;18089;47.428;15.006;2023-04-06T14:37:42;4.32;;;2.90;;
31464;SDS011;18089;47.428;15.006;2023-04-06T14:40:16;4.05;;;2.88;;
31464;SDS011;18089;47.428;15.006;2023-04-06T14:42:48;4.80;;;3.00;;
31464;SDS011;18089;47.428;15.006;2023-04-06T14:45:21;4.13;;;2.92;;
31464;SDS011;18089;47.428;15.006;2023-04-06T14:47:53;3.45;;;2.65;;
31464;SDS011;18089;47.428;15.006;2023-04-06T14:50:25;3.40;;;3.10;;